Time;durP1;ratioP1;P1;durP2;ratioP2;P2;SDS_P1;SDS_P2;PMS_P1;PMS_P2;Temp;Humidity;BMP_temperature;BMP_pressure;BME280_temperature;BME280_humidity;BME280_pressure;Samples;Min_cycle;Max_cycle;Signal;HPM_P1;HPM_P2
2022/03/02 00:02:04;;;;;;;35.48;17.37;;;;;;;1.76;100.00;101206.55;1704267;84;21048;-65
2022/03/02 00:04:31;;;;;;;38.45;18.85;;;;;;;1.76;100.00;101208.69;1703718;84;20987;-66
2022/03/02 00:06:58;;;;;;;36.85;18.87;;;;;;;1.78;100.00;101204.47;1692942;84;21110;-65
2022/03/02 00:09:24;;;;;;;36.20;18.27;;;;;;;1.84;100.00;101206.59;1679616;84;21025;-65
2022/03/02 00:11:51;;;;;;;38.25;18.73;;;;;;;1.74;100.00;101198.92;1696658;84;21547;-64
2022/03/02 00:14:18;;;;;;;36.70;17.80;;;;;;;1.74;100.00;101198.92;1696670;84;21091;-65
2022/03/02 00:16:45;;;;;;;35.58;18.12;;;;;;;1.83;100.00;101194.75;1696735;84;21102;-65
2022/03/02 00:19:11;;;;;;;36.90;17.73;;;;;;;1.72;100.00;101193.00;1716841;84;21000;-65
2022/03/02 00:21:38;;;;;;;33.95;17.10;;;;;;;1.74;100.00;101193.84;1689047;84;21000;-65
2022/03/02 00:24:05;;;;;;;32.78;17.30;;;;;;;1.79;100.00;101193.45;1689231;85;21055;-67
2022/03/02 00:26:33;;;;;;;36.70;17.70;;;;;;;1.76;100.00;101188.39;1689235;85;20940;-65
2022/03/02 00:29:00;;;;;;;36.17;17.62;;;;;;;1.72;100.00;101190.45;1689205;85;21067;-65
2022/03/02 00:31:28;;;;;;;35.58;17.40;;;;;;;1.85;100.00;101187.55;1689244;85;20995;-64
2022/03/02 00:33:55;;;;;;;35.60;18.45;;;;;;;1.82;100.00;101189.23;1688955;85;21511;-65
2022/03/02 00:36:21;;;;;;;33.18;17.55;;;;;;;1.80;100.00;101187.95;1689223;85;21768;-65
2022/03/02 00:38:48;;;;;;;33.83;17.12;;;;;;;1.89;100.00;101190.95;1714604;83;21574;-64
2022/03/02 00:41:15;;;;;;;33.05;17.57;;;;;;;1.85;100.00;101178.67;1714543;82;21055;-64
2022/03/02 00:43:41;;;;;;;34.27;17.60;;;;;;;1.88;100.00;101179.09;1712299;84;21000;-65
2022/03/02 00:46:08;;;;;;;34.23;17.35;;;;;;;1.93;100.00;101179.97;1714616;82;21051;-65
2022/03/02 00:48:36;;;;;;;35.52;17.57;;;;;;;1.91;100.00;101179.95;1714339;84;21016;-65
2022/03/02 00:51:03;;;;;;;34.63;17.82;;;;;;;1.95;100.00;101180.81;1714591;83;21511;-66
2022/03/02 00:53:30;;;;;;;33.60;17.15;;;;;;;1.94;100.00;101177.41;1704646;84;21522;-65
2022/03/02 00:55:57;;;;;;;31.95;15.90;;;;;;;2.00;100.00;101179.12;1714612;83;21082;-65
2022/03/02 00:58:23;;;;;;;30.48;16.10;;;;;;;1.95;100.00;101176.58;1714629;84;20988;-65
2022/03/02 01:00:50;;;;;;;29.52;16.42;;;;;;;1.93;100.00;101177.00;1695614;84;20979;-66
2022/03/02 01:03:22;;;;;;;32.28;16.17;;;;;;;1.98;100.00;101180.81;1717306;83;21007;-65
2022/03/02 01:05:49;;;;;;;30.85;16.35;;;;;;;2.03;100.00;101183.34;1716454;83;21062;-66
2022/03/02 01:08:16;;;;;;;29.00;16.27;;;;;;;2.01;100.00;101187.17;1687960;85;21035;-66
2022/03/02 01:10:43;;;;;;;29.27;15.80;;;;;;;1.97;100.00;101179.13;1716593;83;21083;-66
2022/03/02 01:13:10;;;;;;;27.73;15.50;;;;;;;2.06;100.00;101188.02;1686482;85;21075;-65
2022/03/02 01:15:36;;;;;;;29.95;15.35;;;;;;;2.09;100.00;101180.81;1716414;84;20968;-65
2022/03/02 01:18:04;;;;;;;27.50;15.48;;;;;;;2.05;100.00;101182.53;1724856;82;20998;-66
2022/03/02 01:20:30;;;;;;;28.62;15.65;;;;;;;2.02;100.00;101183.78;1690075;85;21480;-66
2022/03/02 01:22:57;;;;;;;29.57;15.60;;;;;;;2.09;100.00;101177.88;1716540;84;21090;-65
2022/03/02 01:25:24;;;;;;;26.65;14.55;;;;;;;2.05;100.00;101174.91;1716644;83;21010;-66
2022/03/02 01:27:51;;;;;;;26.87;15.18;;;;;;;2.05;100.00;101171.50;1722216;83;21019;-66
2022/03/02 01:30:17;;;;;;;25.05;14.68;;;;;;;2.20;100.00;101170.27;1716987;84;21011;-66
2022/03/02 01:32:45;;;;;;;26.33;14.38;;;;;;;2.09;100.00;101169.39;1724847;83;21040;-66
2022/03/02 01:35:14;;;;;;;24.75;14.20;;;;;;;2.12;100.00;101175.33;1694062;85;21040;-66
2022/03/02 01:37:41;;;;;;;23.20;13.60;;;;;;;2.00;100.00;101173.61;1718204;83;21535;-65
2022/03/02 01:40:09;;;;;;;23.98;14.35;;;;;;;2.07;100.00;101177.03;1689448;84;21572;-65
2022/03/02 01:42:38;;;;;;;24.87;14.83;;;;;;;2.07;100.00;101177.03;1693362;85;21484;-65
2022/03/02 01:45:08;;;;;;;24.35;14.43;;;;;;;2.07;100.00;101175.77;1719566;83;21035;-65
2022/03/02 01:47:35;;;;;;;23.83;14.50;;;;;;;2.06;100.00;101170.67;1691047;83;21066;-65
2022/03/02 01:50:04;;;;;;;26.65;14.13;;;;;;;2.10;100.00;101170.67;1686796;85;21129;-65
2022/03/02 01:52:31;;;;;;;26.50;15.88;;;;;;;2.10;100.00;101173.20;1716666;83;20992;-63
2022/03/02 01:54:58;;;;;;;23.95;15.08;;;;;;;2.05;100.00;101168.56;1700883;84;21075;-64
2022/03/02 01:57:25;;;;;;;26.85;15.50;;;;;;;2.00;100.00;101158.80;1716724;84;21027;-64
2022/03/02 01:59:53;;;;;;;25.48;15.90;;;;;;;1.98;100.00;101156.25;1668158;85;20984;-63
2022/03/02 02:02:20;;;;;;;26.57;15.10;;;;;;;1.99;100.00;101160.50;1695558;84;21039;-64
2022/03/02 02:04:48;;;;;;;26.65;14.50;;;;;;;1.99;100.00;101160.50;1697212;84;21052;-63
2022/03/02 02:07:14;;;;;;;26.70;15.68;;;;;;;2.05;100.00;101152.45;1694679;84;21031;-65
2022/03/02 02:09:41;;;;;;;23.42;14.35;;;;;;;1.98;100.00;101156.25;1685798;84;21046;-64
2022/03/02 02:12:09;;;;;;;24.52;14.58;;;;;;;1.93;100.00;101158.38;1685572;85;21054;-64
2022/03/02 02:14:35;;;;;;;25.23;14.63;;;;;;;1.94;100.00;101154.55;1685234;85;21048;-65
2022/03/02 02:17:03;;;;;;;25.23;14.63;;;;;;;1.94;100.00;101154.55;1685392;85;21565;-66
2022/03/02 02:19:30;;;;;;;25.30;15.43;;;;;;;2.02;100.00;101157.11;1688005;85;21030;-64
2022/03/02 02:21:56;;;;;;;23.65;13.68;;;;;;;1.94;100.00;101153.72;1673144;85;21089;-64
2022/03/02 02:24:24;;;;;;;26.97;15.70;;;;;;;1.93;100.00;101152.88;1675464;85;21090;-65
2022/03/02 02:26:50;;;;;;;26.30;15.30;;;;;;;2.02;100.00;101148.23;1664526;85;21535;-64
2022/03/02 02:29:19;;;;;;;26.48;15.15;;;;;;;1.96;100.00;101141.44;1663900;86;20984;-64
2022/03/02 02:31:47;;;;;;;25.00;15.50;;;;;;;2.00;100.00;101144.41;1716878;83;21046;-64
2022/03/02 02:34:15;;;;;;;25.97;15.30;;;;;;;2.03;100.00;101138.51;1700702;83;20990;-64
2022/03/02 02:36:43;;;;;;;25.90;15.00;;;;;;;1.95;100.00;101129.61;1680253;85;21063;-65
2022/03/02 02:39:10;;;;;;;24.02;15.25;;;;;;;1.97;100.00;101130.45;1668975;84;21095;-64
2022/03/02 02:41:37;;;;;;;26.45;15.45;;;;;;;1.92;100.00;101136.36;1662946;86;21151;-65
2022/03/02 02:44:04;;;;;;;26.42;15.48;;;;;;;1.86;100.00;101132.11;1682991;85;21016;-64
2022/03/02 02:46:31;;;;;;;26.27;15.63;;;;;;;1.96;100.00;101127.91;1682817;85;21508;-63
2022/03/02 02:48:58;;;;;;;23.10;14.75;;;;;;;1.96;100.00;101129.17;1669269;85;22546;-63
2022/03/02 02:51:24;;;;;;;26.70;15.32;;;;;;;1.91;100.00;101124.10;1671595;85;21007;-64
2022/03/02 02:53:51;;;;;;;25.05;14.95;;;;;;;2.05;100.00;101125.79;1696680;83;20995;-65
2022/03/02 02:56:17;;;;;;;24.00;14.80;;;;;;;1.92;100.00;101116.89;1675539;85;21028;-64
2022/03/02 02:58:44;;;;;;;23.32;13.75;;;;;;;1.96;100.00;101116.48;1673070;86;21045;-64
2022/03/02 03:01:11;;;;;;;25.30;14.85;;;;;;;1.92;100.00;101114.78;1662606;86;21043;-65
2022/03/02 03:03:37;;;;;;;22.58;14.13;;;;;;;1.92;100.00;101111.81;1663496;86;21554;-64
2022/03/02 03:06:06;;;;;;;21.95;13.50;;;;;;;1.91;100.00;101108.87;1682869;85;21020;-64
2022/03/02 03:08:32;;;;;;;23.52;13.65;;;;;;;1.85;100.00;101110.12;1651898;85;21041;-64
2022/03/02 03:10:59;;;;;;;22.45;13.50;;;;;;;1.88;100.00;101112.66;1664242;86;21476;-64
2022/03/02 03:13:27;;;;;;;23.12;14.13;;;;;;;1.89;100.00;101112.25;1672456;86;21072;-65
2022/03/02 03:15:54;;;;;;;22.07;12.78;;;;;;;1.96;100.00;101111.41;1712186;84;21007;-63
2022/03/02 03:18:22;;;;;;;22.22;12.88;;;;;;;1.85;100.00;101092.79;1711933;84;21039;-65
2022/03/02 03:20:49;;;;;;;23.15;13.40;;;;;;;1.77;100.00;101097.84;1709194;84;21018;-64
2022/03/02 03:23:15;;;;;;;20.05;13.05;;;;;;;1.85;100.00;101091.09;1668685;86;21055;-65
2022/03/02 03:25:42;;;;;;;19.35;12.28;;;;;;;1.83;100.00;101084.33;1688776;85;21476;-66
2022/03/02 03:28:09;;;;;;;19.48;12.58;;;;;;;1.90;100.00;101091.92;1692634;85;21539;-65
2022/03/02 03:30:36;;;;;;;18.27;12.20;;;;;;;2.00;100.00;101088.98;1722234;83;21041;-64
2022/03/02 03:33:04;;;;;;;20.25;11.97;;;;;;;1.91;100.00;101088.98;1717716;83;21477;-67
2022/03/02 03:35:32;;;;;;;18.00;12.00;;;;;;;1.93;100.00;101084.76;1693461;83;21116;-64
2022/03/02 03:37:59;;;;;;;18.42;11.75;;;;;;;1.88;100.00;101077.55;1716134;83;21037;-64
2022/03/02 03:40:26;;;;;;;18.87;11.88;;;;;;;1.89;100.00;101083.06;1672548;84;21103;-65
2022/03/02 03:42:54;;;;;;;19.67;11.83;;;;;;;1.99;100.00;101078.41;1712286;84;21004;-64
2022/03/02 03:45:22;;;;;;;19.05;12.47;;;;;;;1.91;100.00;101078.83;1712159;84;21027;-64
2022/03/02 03:47:50;;;;;;;20.27;11.85;;;;;;;2.04;100.00;101077.97;1712140;83;21471;-66
2022/03/02 03:50:17;;;;;;;21.12;13.08;;;;;;;2.06;100.00;101074.17;1706254;83;21482;-65
2022/03/02 03:52:44;;;;;;;21.30;12.82;;;;;;;1.98;100.00;101076.70;1703980;84;21018;-64
2022/03/02 03:55:13;;;;;;;21.20;12.93;;;;;;;2.02;100.00;101072.48;1692749;84;21596;-64
2022/03/02 03:57:40;;;;;;;19.60;11.88;;;;;;;2.13;100.00;101069.50;1692787;85;21555;-63
2022/03/02 04:00:13;;;;;;;20.30;12.53;;;;;;;1.95;100.00;101071.21;1702533;84;21001;-64
2022/03/02 04:02:40;;;;;;;19.82;12.30;;;;;;;2.08;100.00;101069.51;1704194;84;21014;-65
2022/03/02 04:05:09;;;;;;;19.15;11.60;;;;;;;2.05;100.00;101068.66;1668900;86;21044;-62
2022/03/02 04:07:37;;;;;;;20.30;12.10;;;;;;;2.05;100.00;101068.66;1669687;84;21019;-63
2022/03/02 04:10:07;;;;;;;20.45;11.97;;;;;;;2.11;100.00;101067.38;1688623;84;21008;-62
2022/03/02 04:12:36;;;;;;;18.82;12.07;;;;;;;2.06;100.00;101062.31;1696694;84;21014;-65
2022/03/02 04:15:05;;;;;;;19.35;11.83;;;;;;;1.99;100.00;101065.28;1695716;84;21012;-63
2022/03/02 04:17:32;;;;;;;21.00;12.70;;;;;;;1.99;100.00;101065.28;1677961;84;21548;-63
2022/03/02 04:20:00;;;;;;;17.90;12.23;;;;;;;2.05;100.00;101064.45;1668214;84;21034;-62
2022/03/02 04:22:28;;;;;;;19.00;11.63;;;;;;;1.92;100.00;101054.69;1668172;86;21051;-63
2022/03/02 04:24:54;;;;;;;18.32;11.68;;;;;;;2.00;100.00;101058.08;1668377;86;21050;-64
2022/03/02 04:27:21;;;;;;;18.75;12.47;;;;;;;2.05;100.00;101065.72;1689391;85;21091;-62
2022/03/02 04:29:48;;;;;;;19.48;12.20;;;;;;;2.06;100.00;101066.55;1690566;83;21012;-62
2022/03/02 04:32:15;;;;;;;18.73;12.07;;;;;;;2.06;100.00;101071.20;1687920;85;21036;-62
2022/03/02 04:34:42;;;;;;;18.40;11.95;;;;;;;2.13;100.00;101070.37;1683178;85;21046;-63
2022/03/02 04:37:08;;;;;;;16.90;11.50;;;;;;;2.08;100.00;101066.12;1668411;86;21035;-62
2022/03/02 04:39:35;;;;;;;20.08;12.47;;;;;;;2.12;100.00;101075.01;1707101;82;21559;-62
2022/03/02 04:42:03;;;;;;;19.73;13.10;;;;;;;2.09;100.00;101073.75;1724589;83;21044;-62
2022/03/02 04:44:30;;;;;;;19.10;12.90;;;;;;;2.03;100.00;101074.16;1724465;83;21016;-62
2022/03/02 04:46:56;;;;;;;16.85;11.68;;;;;;;2.11;100.00;101073.33;1701279;82;21039;-62
2022/03/02 04:49:23;;;;;;;19.50;12.80;;;;;;;1.96;100.00;101078.39;1695635;84;21512;-63
2022/03/02 04:51:49;;;;;;;20.43;13.03;;;;;;;2.02;100.00;101085.17;1695615;85;21071;-63
2022/03/02 04:57:06;;;;;;;17.12;11.45;;;;;;;2.06;100.00;101075.44;1698194;83;20976;-63
2022/03/02 04:59:33;;;;;;;20.65;12.45;;;;;;;2.03;100.00;101090.27;1695789;85;21535;-62
2022/03/02 05:02:01;;;;;;;20.68;12.85;;;;;;;2.03;100.00;101090.27;1695281;85;21032;-63
2022/03/02 05:04:28;;;;;;;19.80;12.13;;;;;;;2.12;100.00;101091.52;1695692;85;21078;-63
2022/03/02 05:06:55;;;;;;;20.20;12.45;;;;;;;2.17;100.00;101089.84;1709416;82;21123;-62
2022/03/02 05:09:22;;;;;;;20.45;12.85;;;;;;;2.17;100.00;101089.84;1684588;85;21367;-65
2022/03/02 05:11:52;;;;;;;19.37;12.80;;;;;;;2.18;100.00;101097.87;1668821;84;21551;-64
2022/03/02 05:14:19;;;;;;;20.25;12.73;;;;;;;2.18;100.00;101097.87;1691169;84;20964;-64
2022/03/02 05:16:46;;;;;;;19.75;12.00;;;;;;;2.28;100.00;101102.95;1688573;84;21059;-64
2022/03/02 05:19:12;;;;;;;19.92;12.40;;;;;;;2.30;100.00;101099.56;1680860;84;20998;-63
2022/03/02 05:21:39;;;;;;;18.27;12.10;;;;;;;2.19;100.00;101102.12;1686120;84;21550;-63
2022/03/02 05:24:06;;;;;;;20.97;12.75;;;;;;;2.33;100.00;101105.92;1702385;84;21103;-63
2022/03/02 05:26:34;;;;;;;21.25;12.95;;;;;;;2.30;100.00;101112.70;1688003;84;21534;-64
2022/03/02 05:29:04;;;;;;;20.65;12.93;;;;;;;2.31;100.00;101112.70;1683482;85;21016;-64
2022/03/02 05:31:31;;;;;;;20.70;12.63;;;;;;;2.37;100.00;101111.83;1687143;84;21019;-63
2022/03/02 05:33:58;;;;;;;22.05;14.03;;;;;;;2.37;100.00;101111.83;1694560;84;21051;-62
2022/03/02 05:36:26;;;;;;;22.75;13.58;;;;;;;2.37;100.00;101108.02;1692007;84;21487;-62
2022/03/02 05:38:53;;;;;;;24.32;14.63;;;;;;;2.34;100.00;101113.12;1691653;84;21051;-64
2022/03/02 05:41:21;;;;;;;27.02;15.25;;;;;;;2.39;100.00;101114.81;1690298;84;22135;-64
2022/03/02 05:43:49;;;;;;;23.07;14.78;;;;;;;2.55;100.00;101109.70;1691559;85;21067;-66
2022/03/02 05:46:19;;;;;;;26.30;15.50;;;;;;;2.61;100.00;101112.23;1693057;85;21044;-63
2022/03/02 05:48:49;;;;;;;22.70;14.45;;;;;;;2.54;100.00;101115.64;1696385;84;21030;-64
2022/03/02 05:51:17;;;;;;;25.10;15.23;;;;;;;2.49;100.00;101109.28;1691541;85;21539;-64
2022/03/02 05:53:44;;;;;;;25.92;15.60;;;;;;;2.49;100.00;101113.09;1691957;84;20964;-63
2022/03/02 05:56:12;;;;;;;27.20;16.17;;;;;;;2.46;100.00;101116.92;1691201;85;21047;-64
2022/03/02 05:58:39;;;;;;;27.30;15.83;;;;;;;2.57;100.00;101111.81;1691186;85;21051;-63
2022/03/02 06:01:06;;;;;;;27.42;16.70;;;;;;;2.66;100.00;101116.06;1691290;85;21020;-64
2022/03/02 06:03:33;;;;;;;28.62;15.75;;;;;;;2.53;100.00;101117.75;1687851;84;21518;-64
2022/03/02 06:06:05;;;;;;;29.25;16.42;;;;;;;2.65;100.00;101115.19;1671534;85;21390;-66
2022/03/02 06:08:38;;;;;;;29.72;17.62;;;;;;;2.65;100.00;101115.63;1669029;84;21056;-65
2022/03/02 06:11:08;;;;;;;30.00;16.85;;;;;;;2.83;100.00;101116.02;1668748;85;21056;-63
2022/03/02 06:13:35;;;;;;;27.30;16.60;;;;;;;2.98;100.00;101118.50;1678306;85;21085;-64
2022/03/02 06:16:04;;;;;;;28.85;16.77;;;;;;;2.74;100.00;101119.43;1673238;86;21542;-64
2022/03/02 06:18:34;;;;;;;30.40;17.35;;;;;;;2.75;100.00;101126.19;1664469;85;22302;-63
2022/03/02 06:21:03;;;;;;;28.87;17.52;;;;;;;2.76;100.00;101119.00;1657291;86;21107;-63
2022/03/02 06:23:31;;;;;;;29.72;17.25;;;;;;;2.74;100.00;101124.08;1657250;86;21053;-63
2022/03/02 06:25:59;;;;;;;28.30;17.40;;;;;;;2.95;100.00;101121.06;1662894;86;21077;-64
2022/03/02 06:28:27;;;;;;;31.90;16.97;;;;;;;2.90;100.00;101122.36;1666274;86;21024;-63
2022/03/02 06:30:54;;;;;;;30.20;17.60;;;;;;;2.79;100.00;101120.25;1647996;86;20958;-62
2022/03/02 06:33:21;;;;;;;31.30;17.73;;;;;;;2.65;100.00;101116.89;1660858;86;21560;-65
2022/03/02 06:35:50;;;;;;;32.80;18.67;;;;;;;2.73;100.00;101118.99;1689142;85;21040;-64
2022/03/02 06:38:18;;;;;;;34.67;18.60;;;;;;;2.69;100.00;101116.03;1687191;85;21083;-63
2022/03/02 06:41:24;;;;;;;34.13;19.32;;;;;;;2.88;100.00;101112.61;1687177;84;21028;-64
2022/03/02 06:44:07;;;;;;;32.30;17.42;;;;;;;2.83;100.00;101115.58;1633719;85;21089;-63
2022/03/02 06:46:55;;;;;;;34.03;18.17;;;;;;;2.98;100.00;101116.83;1689360;84;21082;-64
2022/03/02 06:49:46;;;;;;;34.50;18.10;;;;;;;2.97;100.00;101110.46;1691838;85;21039;-62
2022/03/02 06:52:19;;;;;;;30.55;17.17;;;;;;;3.01;100.00;101114.25;1695276;84;21110;-64
2022/03/02 06:54:50;;;;;;;36.35;18.48;;;;;;;3.20;100.00;101109.09;1678186;84;21105;-64
2022/03/02 06:57:19;;;;;;;32.00;17.27;;;;;;;3.07;100.00;101110.85;1708686;84;21063;-63
2022/03/02 06:59:53;;;;;;;29.98;16.62;;;;;;;3.00;100.00;101111.31;1693994;85;21098;-63
2022/03/02 07:02:46;;;;;;;30.30;16.53;;;;;;;2.99;100.00;101115.95;1694232;85;21059;-63
2022/03/02 07:05:13;;;;;;;30.65;16.35;;;;;;;3.11;100.00;101108.72;1678798;85;21085;-63
2022/03/02 07:07:42;;;;;;;28.98;16.57;;;;;;;2.90;100.00;101107.09;1714549;83;21221;-63
2022/03/02 07:10:11;;;;;;;29.27;15.95;;;;;;;3.09;100.00;101107.04;1709212;83;21040;-64
2022/03/02 07:12:40;;;;;;;29.10;17.23;;;;;;;3.03;100.00;101104.52;1704587;83;21074;-63
2022/03/02 07:15:10;;;;;;;30.55;16.67;;;;;;;3.10;100.00;101096.00;1686085;85;21491;-63
2022/03/02 07:17:39;;;;;;;30.55;16.42;;;;;;;3.12;100.00;101091.34;1718363;83;21023;-63
2022/03/02 07:20:10;;;;;;;29.65;16.37;;;;;;;3.19;100.00;101092.16;1717675;83;21011;-64
2022/03/02 07:22:44;;;;;;;31.42;16.67;;;;;;;3.13;100.00;101090.48;1693963;84;21070;-63
2022/03/02 07:25:32;;;;;;;27.50;15.93;;;;;;;3.28;100.00;101091.27;1692688;84;21109;-64
2022/03/02 07:28:01;;;;;;;29.42;16.62;;;;;;;3.21;100.00;101093.00;1716502;83;21588;-63
2022/03/02 07:30:29;;;;;;;27.65;16.35;;;;;;;3.45;100.00;101088.63;1716431;83;21550;-63
2022/03/02 07:33:02;;;;;;;26.45;15.93;;;;;;;3.33;100.00;101086.58;1716802;83;21011;-64
2022/03/02 07:35:37;;;;;;;28.62;16.17;;;;;;;3.34;100.00;101081.89;1682828;84;21562;-63
2022/03/02 07:38:06;;;;;;;27.80;15.80;;;;;;;3.37;100.00;101084.87;1697025;84;21043;-63
2022/03/02 07:40:34;;;;;;;28.73;16.02;;;;;;;3.49;100.00;101078.84;1715925;82;21130;-63
2022/03/02 07:43:02;;;;;;;25.35;14.65;;;;;;;3.54;100.00;101080.52;1719297;83;21066;-64
2022/03/02 07:45:29;;;;;;;24.18;14.63;;;;;;;3.48;100.00;101078.00;1713087;83;21092;-65
2022/03/02 07:47:56;;;;;;;24.77;15.28;;;;;;;3.70;100.00;101081.70;1716218;83;21197;-64
2022/03/02 07:50:24;;;;;;;26.07;15.20;;;;;;;3.73;100.00;101086.36;1697009;83;20981;-63
2022/03/02 07:52:52;;;;;;;23.67;14.33;;;;;;;3.63;100.00;101083.86;1674740;83;21039;-62
2022/03/02 07:55:20;;;;;;;28.20;15.58;;;;;;;3.53;100.00;101075.45;1686032;85;21032;-62
2022/03/02 07:57:55;;;;;;;27.98;16.30;;;;;;;3.69;100.00;101073.23;1716548;83;21097;-63
2022/03/02 08:00:23;;;;;;;28.15;16.12;;;;;;;3.71;100.00;101070.24;1684980;84;21038;-62
2022/03/02 08:02:54;;;;;;;26.10;15.38;;;;;;;3.79;100.00;101062.12;1680923;84;21055;-63
2022/03/02 08:05:22;;;;;;;26.07;15.32;;;;;;;3.81;100.00;101058.27;1703640;83;21044;-63
2022/03/02 08:07:50;;;;;;;28.65;15.85;;;;;;;3.71;100.00;101056.24;1690456;84;21091;-64
2022/03/02 08:10:19;;;;;;;26.20;14.65;;;;;;;3.64;100.00;101052.03;1707827;83;21025;-64
2022/03/02 08:12:46;;;;;;;27.13;14.05;;;;;;;3.57;100.00;101052.95;1695699;83;21565;-64
2022/03/02 08:15:14;;;;;;;25.68;13.85;;;;;;;3.72;100.00;101049.44;1702843;83;21039;-64
2022/03/02 08:17:43;;;;;;;25.32;14.53;;;;;;;3.77;100.00;101057.47;1702306;83;21120;-64
2022/03/02 08:20:12;;;;;;;25.15;14.03;;;;;;;3.97;100.00;101047.54;1673812;85;21007;-64
2022/03/02 08:22:44;;;;;;;25.15;13.03;;;;;;;3.95;100.00;101050.53;1714689;83;20985;-63
2022/03/02 08:25:12;;;;;;;25.48;13.90;;;;;;;3.87;100.00;101046.76;1698266;83;21540;-63
2022/03/02 08:27:43;;;;;;;24.72;12.15;;;;;;;4.14;100.00;101044.43;1716552;83;20940;-64
2022/03/02 08:30:13;;;;;;;21.65;12.50;;;;;;;4.10;100.00;101049.14;1679191;85;21002;-67
2022/03/02 08:32:46;;;;;;;21.07;12.93;;;;;;;4.23;100.00;101046.05;1679160;84;21507;-65
2022/03/02 08:35:14;;;;;;;23.35;12.95;;;;;;;4.21;100.00;101041.39;1707119;83;21503;-63
2022/03/02 08:37:42;;;;;;;24.57;13.25;;;;;;;4.19;100.00;101040.56;1715911;83;21042;-63
2022/03/02 08:40:12;;;;;;;22.35;12.28;;;;;;;4.41;100.00;101048.84;1671696;85;21157;-64
2022/03/02 08:42:39;;;;;;;23.62;13.53;;;;;;;4.46;100.00;101044.97;1693802;84;21044;-63
2022/03/02 08:45:09;;;;;;;23.38;12.47;;;;;;;4.51;100.00;101041.52;1688657;85;21011;-63
2022/03/02 08:47:38;;;;;;;21.48;11.88;;;;;;;4.58;100.00;101035.51;1694859;84;21010;-63
2022/03/02 08:50:07;;;;;;;22.27;13.08;;;;;;;4.30;100.00;101036.63;1712376;83;20999;-63
2022/03/02 08:52:36;;;;;;;21.05;12.33;;;;;;;4.23;100.00;101038.83;1687510;85;21098;-62
2022/03/02 08:55:09;;;;;;;20.97;12.23;;;;;;;4.23;100.00;101032.02;1716338;83;21387;-62
2022/03/02 08:57:42;;;;;;;20.90;13.18;;;;;;;4.11;100.00;101029.59;1716733;83;21029;-62
2022/03/02 09:00:13;;;;;;;22.48;13.10;;;;;;;4.43;100.00;101033.55;1695338;83;21388;-62
2022/03/02 09:02:41;;;;;;;23.15;13.45;;;;;;;4.44;100.00;101030.98;1686664;85;21078;-64
2022/03/02 09:05:09;;;;;;;21.87;13.00;;;;;;;4.52;100.00;101029.20;1716644;83;21585;-63
2022/03/02 09:07:38;;;;;;;21.20;12.58;;;;;;;4.44;100.00;101024.62;1693828;84;21546;-62
2022/03/02 09:10:07;;;;;;;24.37;13.48;;;;;;;4.49;100.00;101025.39;1699330;82;21090;-63
2022/03/02 09:12:36;;;;;;;23.20;13.10;;;;;;;4.55;100.00;101030.42;1724436;83;21027;-62
2022/03/02 09:15:04;;;;;;;24.87;13.53;;;;;;;4.57;100.00;101023.61;1679864;85;21083;-63
2022/03/02 09:17:32;;;;;;;23.22;12.88;;;;;;;4.72;100.00;101018.75;1706075;84;21016;-62
2022/03/02 09:19:58;;;;;;;21.17;12.80;;;;;;;4.69;100.00;101017.97;1699175;83;21070;-62
2022/03/02 09:22:27;;;;;;;20.70;12.55;;;;;;;4.61;100.00;101018.89;1692684;84;21008;-63
2022/03/02 09:24:56;;;;;;;21.20;12.58;;;;;;;4.59;100.00;101022.32;1706102;84;20986;-63
2022/03/02 09:27:28;;;;;;;19.45;11.80;;;;;;;4.72;100.00;101019.19;1702154;84;21094;-62
2022/03/02 09:29:57;;;;;;;20.68;11.68;;;;;;;4.86;100.00;101019.03;1680190;83;21055;-64
2022/03/02 09:32:25;;;;;;;19.20;11.90;;;;;;;4.71;100.00;101017.08;1699761;83;21046;-63
2022/03/02 09:34:56;;;;;;;21.05;11.85;;;;;;;4.70;100.00;101014.10;1701517;84;21469;-64
2022/03/02 09:37:25;;;;;;;17.82;10.95;;;;;;;4.84;100.00;101010.55;1693751;83;21047;-64
2022/03/02 09:39:53;;;;;;;17.70;10.88;;;;;;;4.75;100.00;101008.97;1699741;83;21515;-62
2022/03/02 09:42:33;;;;;;;17.45;11.25;;;;;;;4.73;100.00;101000.49;1697695;84;21024;-63
2022/03/02 09:45:05;;;;;;;17.30;10.32;;;;;;;4.75;100.00;101005.14;1689551;84;21078;-65
2022/03/02 09:47:43;;;;;;;18.40;10.85;;;;;;;4.79;100.00;101000.42;1701643;83;21693;-64
2022/03/02 09:50:14;;;;;;;16.73;10.00;;;;;;;4.79;100.00;100994.04;1641655;87;21130;-63
2022/03/02 09:52:45;;;;;;;18.80;10.03;;;;;;;4.86;100.00;100993.52;1650135;85;21587;-64
2022/03/02 09:55:21;;;;;;;16.55;10.25;;;;;;;4.96;100.00;100987.44;1687171;83;21550;-64
2022/03/02 09:57:53;;;;;;;15.23;9.10;;;;;;;4.79;100.00;100984.67;1678670;85;21078;-64
2022/03/02 10:00:22;;;;;;;15.53;8.68;;;;;;;4.75;100.00;100982.19;1696487;84;21049;-64
2022/03/02 10:03:00;;;;;;;18.00;10.35;;;;;;;4.81;100.00;100979.56;1682531;84;21031;-64
2022/03/02 10:05:31;;;;;;;17.95;10.25;;;;;;;4.77;100.00;100972.37;1700860;84;21040;-64
2022/03/02 10:08:04;;;;;;;17.13;10.00;;;;;;;4.79;100.00;100967.27;1679213;85;21039;-63
2022/03/02 10:10:39;;;;;;;16.35;9.40;;;;;;;4.74;100.00;100968.57;1708084;83;22119;-64
2022/03/02 10:13:09;;;;;;;;;;;;;;;4.71;100.00;100966.52;1715223;83;21045;-63
2022/03/02 10:15:39;;;;;;;16.57;8.90;;;;;;;4.72;100.00;100961.81;1678049;85;20141;-64
2022/03/02 10:18:11;;;;;;;14.90;9.25;;;;;;;4.69;100.00;100954.22;1680030;85;21019;-65
2022/03/02 10:20:49;;;;;;;16.00;9.50;;;;;;;4.63;100.00;100951.30;1685813;84;21051;-67
2022/03/02 10:23:34;;;;;;;13.85;8.58;;;;;;;4.81;100.00;100944.69;1668866;84;21530;-65
2022/03/02 10:26:18;;;;;;;14.23;8.73;;;;;;;4.71;100.00;100937.19;1695358;84;21560;-65
2022/03/02 10:28:56;;;;;;;;;;;;;;;4.84;100.00;100933.59;1698357;84;21540;-65
2022/03/02 10:31:40;;;;;;;13.08;8.38;;;;;;;4.76;100.00;100931.14;1689114;84;20584;-66
2022/03/02 10:34:28;;;;;;;13.40;8.40;;;;;;;4.96;100.00;100935.97;1689508;84;21057;-63
2022/03/02 10:37:23;;;;;;;15.43;8.53;;;;;;;4.97;100.00;100935.56;1688807;84;21604;-65
2022/03/02 10:39:58;;;;;;;15.48;8.48;;;;;;;5.05;100.00;100934.16;1678118;83;21138;-64
2022/03/02 10:42:31;;;;;;;12.45;7.85;;;;;;;5.05;100.00;100932.88;1686862;84;21019;-64
2022/03/02 10:45:18;;;;;;;13.62;7.90;;;;;;;5.02;100.00;100931.22;1693425;84;21515;-65
2022/03/02 10:48:16;;;;;;;14.58;8.40;;;;;;;5.10;100.00;100928.56;1688961;84;21035;-65
2022/03/02 10:50:46;;;;;;;14.23;8.73;;;;;;;5.08;100.00;100925.19;1655530;85;21043;-64
2022/03/02 10:53:16;;;;;;;15.63;9.05;;;;;;;5.18;100.00;100926.74;1687853;84;21059;-64
2022/03/02 10:55:48;;;;;;;15.65;8.95;;;;;;;5.35;100.00;100920.09;1663709;84;21047;-65
2022/03/02 10:58:17;;;;;;;14.53;8.90;;;;;;;5.64;100.00;100918.35;1688720;84;21022;-65
2022/03/02 11:00:47;;;;;;;15.10;9.03;;;;;;;5.71;100.00;100908.42;1694067;84;21058;-63
2022/03/02 11:03:14;;;;;;;13.40;9.13;;;;;;;5.82;100.00;100906.97;1690467;84;21051;-64
2022/03/02 11:05:41;;;;;;;13.45;8.68;;;;;;;5.66;100.00;100902.98;1701811;83;21066;-63
2022/03/02 11:08:10;;;;;;;15.10;9.33;;;;;;;5.81;100.00;100904.83;1681373;85;21547;-64
2022/03/02 11:10:39;;;;;;;16.12;9.60;;;;;;;5.74;100.00;100896.89;1676513;85;21530;-64
2022/03/02 11:13:15;;;;;;;15.28;9.30;;;;;;;5.71;100.00;100890.98;1694373;84;21037;-64
2022/03/02 11:15:58;;;;;;;15.55;9.30;;;;;;;5.99;100.00;100879.41;1687980;84;21001;-63
2022/03/02 11:18:38;;;;;;;;;;;;;;;5.90;100.00;100883.81;1675682;86;21031;-65
2022/03/02 11:21:11;;;;;;;14.50;8.98;;;;;;;5.87;100.00;100890.28;1702598;83;20437;-63
2022/03/02 11:23:46;;;;;;;15.13;9.18;;;;;;;5.89;100.00;100882.15;1696198;84;21036;-62
2022/03/02 11:26:27;;;;;;;14.83;9.43;;;;;;;6.03;100.00;100876.37;1689392;85;21845;-63